Flight Track Log - Related Links

Times and Time Zones

All times are in EDT time to prevent confusion due to time zone crossing. See the N100PM flight status page for this flight to view local times or setup timezone preferences in your user account.


Time Position Orientation Groundspeed Altitude Reporting Facility
EDT Latitude Longitude Course Direction KTS MPH feet Rate Location/Type
Wed 11:18:32 AM 31.8844 -102.6119 262° West 97 112 10,000  Level Fort Worth Center
Wed 11:19:32 AM 31.8811 -102.6386 262° West 97 112 10,000  Level Fort Worth Center
Wed 11:20:32 AM 31.8822 -102.6656 273° West 92 106 10,000  Level Fort Worth Center
Wed 11:21:32 AM 31.8789 -102.6925 262° West 87 100 10,000 50 Level Fort Worth Center
Wed 11:22:32 AM 31.8797 -102.7217 254° West 87 100 10,100 50 Climbing Fort Worth Center
Wed 11:23:32 AM 31.8786 -102.7486 267° West 87 100 10,100  Level Fort Worth Center
Wed 11:24:32 AM 31.8794 -102.7781 272° West 87 100 10,100  Level Fort Worth Center
Wed 11:25:32 AM 31.8783 -102.8050 267° West 87 100 10,100  Level Fort Worth Center
Wed 11:26:32 AM 31.8772 -102.8342 267° West 87 100 10,100  Level Fort Worth Center
Wed 11:27:32 AM 31.8739 -102.8608 262° West 87 100 10,100  Level Fort Worth Center
Wed 11:28:32 AM 31.8728 -102.8878 267° West 87 100 10,100  Level Fort Worth Center
Wed 11:29:32 AM 31.8736 -102.9169 272° West 87 100 10,100  Level Fort Worth Center
Wed 11:30:32 AM 31.8722 -102.9439 267° West 87 100 10,100  Level Fort Worth Center
Wed 11:31:32 AM 31.8733 -102.9708 273° West 87 100 10,100  Level Fort Worth Center
Wed 11:32:32 AM 31.8742 -103.0003 272° West 87 100 10,100  Level Fort Worth Center
Wed 11:33:32 AM 31.8747 -103.0322 271° West 87 100 10,100  Level Fort Worth Center
Wed 11:34:32 AM 31.8733 -103.0614 267° West 87 100 10,100  Level Fort Worth Center
Wed 11:35:32 AM 31.8719 -103.0906 267° West 87 100 10,100  Level Fort Worth Center
Wed 11:36:32 AM 31.8708 -103.1200 267° West 87 100 10,100  Level Fort Worth Center
Wed 11:37:32 AM 31.8736 -103.1494 276° West 87 100 10,100  Level Fort Worth Center
Wed 11:38:32 AM 31.8744 -103.1789 272° West 87 100 10,100  Level Fort Worth Center
Wed 11:39:32 AM 31.8708 -103.2081 262° West 87 100 10,100 -50 Level Fort Worth Center
Wed 11:40:32 AM 31.8656 -103.2319 255° West 87 100 10,000 -200 Descending Fort Worth Center
Wed 11:41:32 AM 31.8600 -103.2611 257° West 87 100 9,700 -300 Descending Fort Worth Center
Wed 11:42:32 AM 31.8608 -103.2906 272° West 93 107 9,400 -296 Descending Fort Worth Center
Wed 11:43:54 AM 31.8306 -103.3211 221° Southwest 102 117 9,000 -125 Descending Albuquerque Center
Wed 11:44:56 AM 31.8056 -103.3297 196° South 95 109 9,100 97 Climbing Albuquerque Center
Wed 11:45:58 AM 31.7836 -103.3386 199° South 88 101 9,200  Climbing Albuquerque Center
Wed 11:47:00 AM 31.7619 -103.3569 216° Southwest 93 107 9,100 -48 Descending Albuquerque Center
Wed 11:48:02 AM 31.7347 -103.3744 209° Southwest 94 108 9,100  Level Albuquerque Center
Wed 11:49:04 AM 31.7122 -103.3883 208° Southwest 92 106 9,100  Level Albuquerque Center
Wed 11:50:06 AM 31.6903 -103.4050 213° Southwest 93 107 9,100  Level Albuquerque Center
Wed 11:51:08 AM 31.6686 -103.4233 216° Southwest 95 109 9,100  Level Albuquerque Center
Wed 11:52:10 AM 31.6464 -103.4386 210° Southwest 93 107 9,100  Level Albuquerque Center
Wed 11:53:12 AM 31.6264 -103.4561 217° Southwest 93 107 9,100  Level Albuquerque Center
Wed 11:54:14 AM 31.5994 -103.4750 211° Southwest 93 107 9,100  Level Albuquerque Center
Wed 11:55:17 AM 31.5772 -103.4925 214° Southwest 93 107 9,100  Level Albuquerque Center
Wed 11:56:19 AM 31.5556 -103.5086 212° Southwest 93 107 9,100  Level Albuquerque Center
Wed 11:57:21 AM 31.5339 -103.5250 213° Southwest 92 106 9,100  Level Albuquerque Center
Wed 11:58:23 AM 31.5108 -103.5414 211° Southwest 95 109 9,100  Level Albuquerque Center
Wed 11:59:25 AM 31.4914 -103.5586 217° Southwest 91 105 9,100  Level Albuquerque Center
Wed 12:00:27 PM 31.4642 -103.5758 208° Southwest 93 107 9,100  Level Albuquerque Center
Wed 12:01:29 PM 31.4697 -103.6053 282° West 93 107 9,100  Level Albuquerque Center
Wed 12:02:31 PM 31.4711 -103.6372 273° West 97 112 9,100  Level Albuquerque Center
Wed 12:03:33 PM 31.4736 -103.6689 275° West 98 113 9,100  Level Albuquerque Center
Wed 12:04:35 PM 31.4756 -103.7025 274° West 102 117 9,100  Level Albuquerque Center
Wed 12:05:37 PM 31.4781 -103.7406 274° West 99 114 9,100  Level Albuquerque Center
Wed 12:06:39 PM 31.4808 -103.7669 277° West 93 107 9,100  Level Albuquerque Center
Wed 12:07:41 PM 31.4836 -103.7989 276° West 96 110 9,100  Level Albuquerque Center
Wed 12:08:43 PM 31.4819 -103.8300 266° West 96 110 9,100  Level Albuquerque Center
Wed 12:09:46 PM 31.4853 -103.8678 276° West 97 112 9,100  Level Albuquerque Center
Wed 12:10:48 PM 31.4858 -103.8981 271° West 95 109 9,100  Level Albuquerque Center
Wed 12:11:50 PM 31.4886 -103.9269 276° West 92 106 9,100  Level Albuquerque Center
Wed 12:12:52 PM 31.4917 -103.9553 277° West 89 102 9,100  Level Albuquerque Center
Wed 12:13:54 PM 31.4928 -103.9847 273° West 91 105 9,100  Level Albuquerque Center
Wed 12:14:56 PM 31.4931 -104.0164 271° West 95 109 9,100  Level Albuquerque Center
Wed 12:15:58 PM 31.4958 -104.0528 275° West 94 108 9,100  Level Albuquerque Center
Wed 12:17:00 PM 31.4972 -104.0828 273° West 94 108 9,100  Level Albuquerque Center
Wed 12:18:02 PM 31.4978 -104.1122 271° West 92 106 9,100  Level Albuquerque Center
Wed 12:19:04 PM 31.5019 -104.1425 279° West 93 107 9,100  Level Albuquerque Center
Wed 12:20:06 PM 31.5025 -104.1731 271° West 95 109 9,100  Level Albuquerque Center
Wed 12:21:08 PM 31.5053 -104.2044 276° West 96 110 9,100  Level Albuquerque Center
Wed 12:22:10 PM 31.5067 -104.2411 273° West 95 109 9,100  Level Albuquerque Center
Wed 12:23:12 PM 31.5089 -104.2697 275° West 91 105 9,100  Level Albuquerque Center
Wed 12:24:15 PM 31.5119 -104.3000 277° West 92 106 9,100  Level Albuquerque Center
Wed 12:25:17 PM 31.5125 -104.3281 271° West 89 102 9,100  Level Albuquerque Center
Wed 12:26:19 PM 31.5136 -104.3575 273° West 90 104 9,100  Level Albuquerque Center
Wed 12:27:21 PM 31.5150 -104.3867 273° West 90 104 9,100  Level Albuquerque Center
Wed 12:28:23 PM 31.5169 -104.4208 274° West 88 101 9,100  Level Albuquerque Center
Wed 12:29:25 PM 31.5183 -104.4497 273° West 88 101 9,100  Level Albuquerque Center
Wed 12:30:27 PM 31.5203 -104.4792 274° West 90 104 9,100  Level Albuquerque Center
Wed 12:31:29 PM 31.5222 -104.5086 274° West 91 105 9,100  Level Albuquerque Center
Wed 12:32:31 PM 31.5247 -104.5389 276° West 92 106 9,100  Level Albuquerque Center
Wed 12:33:33 PM 31.5256 -104.5728 272° West 89 102 9,100  Level Albuquerque Center
Wed 12:34:35 PM 31.5272 -104.6003 274° West 86 99 9,100  Level Albuquerque Center
Wed 12:35:37 PM 31.5289 -104.6247 275° West 80 92 9,100  Level Albuquerque Center
Wed 12:36:39 PM 31.5303 -104.6500 274° West 78 90 9,100  Level Albuquerque Center
Wed 12:37:41 PM 31.5325 -104.6781 275° West 84 97 9,100  Level Albuquerque Center
Wed 12:38:44 PM 31.5344 -104.7072 274° West 89 102 9,100  Level Albuquerque Center
Wed 12:39:46 PM 31.5356 -104.7417 272° West 89 102 9,100  Level Albuquerque Center
Wed 12:40:48 PM 31.5350 -104.7700 269° West 88 101 9,100  Level Albuquerque Center
Wed 12:41:50 PM 31.5361 -104.7972 273° West 85 98 9,100  Level Albuquerque Center
Wed 12:42:52 PM 31.5389 -104.8261 276° West 88 101 9,100  Level Albuquerque Center
Wed 12:43:54 PM 31.5394 -104.8542 271° West 88 101 9,100  Level Albuquerque Center
Wed 12:44:56 PM 31.5422 -104.8806 277° West 84 97 9,100  Level Albuquerque Center
Wed 12:45:58 PM 31.5439 -104.9122 274° West 81 93 9,100  Level Albuquerque Center
Wed 12:47:00 PM 31.5461 -104.9386 276° West 81 93 9,100  Level Albuquerque Center
Wed 12:48:02 PM 31.5478 -104.9653 274° West 82 94 9,100  Level Albuquerque Center
Wed 12:49:04 PM 31.5492 -104.9919 274° West 82 94 9,100  Level Albuquerque Center
Wed 12:50:06 PM 31.5497 -105.0189 271° West 83 96 9,100  Level Albuquerque Center
Wed 12:51:08 PM 31.5519 -105.0519 275° West 84 97 9,100  Level Albuquerque Center
Wed 12:52:10 PM 31.5525 -105.0786 271° West 83 96 9,100  Level Albuquerque Center
Wed 12:53:12 PM 31.5536 -105.1039 273° West 80 92 9,100  Level Albuquerque Center
Wed 12:54:14 PM 31.5556 -105.1281 275° West 76 87 9,100  Level Albuquerque Center
Wed 12:55:16 PM 31.5564 -105.1550 272° West 80 92 9,100  Level Albuquerque Center
Wed 12:56:18 PM 31.5578 -105.1819 273° West 82 94 9,100  Level Albuquerque Center
Wed 12:57:20 PM 31.5597 -105.2156 274° West 85 98 9,100  Level Albuquerque Center
Wed 12:58:22 PM 31.5617 -105.2431 275° West 85 98 9,100  Level Albuquerque Center
Wed 12:59:24 PM 31.5622 -105.2697 271° West 82 94 9,100  Level Albuquerque Center
Wed 01:00:26 PM 31.5628 -105.2961 271° West 82 94 9,100  Level Albuquerque Center
Wed 01:01:28 PM 31.5653 -105.3231 276° West 83 96 9,100  Level Albuquerque Center
Wed 01:02:30 PM 31.5669 -105.3503 274° West 83 96 9,100  Level Albuquerque Center
Wed 01:03:32 PM 31.5686 -105.3806 274° West 80 92 9,100  Level Albuquerque Center
Wed 01:04:34 PM 31.5756 -105.4039 289° West 77 89 9,100  Level Albuquerque Center
Wed 01:05:36 PM 31.5825 -105.4294 288° West 81 93 9,100 48 Level Albuquerque Center
Wed 01:06:38 PM 31.5858 -105.4525 280° West 76 87 9,200 48 Climbing Albuquerque Center
Wed 01:07:40 PM 31.5950 -105.4761 295° West 78 90 9,200  Level Albuquerque Center
Wed 01:08:43 PM 31.6008 -105.5019 285° West 80 92 9,200  Level Albuquerque Center
Wed 01:08:50 PM 31.6003 -105.5069 263° West 83 96 9,200 -97 Level Albuquerque Center
Wed 01:09:45 PM 31.6114 -105.5389 292° West 96 110 9,100 -82 Descending Albuquerque Center
Wed 01:10:03 PM 31.6114 -105.5442 270° West 101 116 9,100  Level Albuquerque Center
Wed 01:10:47 PM 31.6194 -105.5681 292° West 96 110 9,100  Level Albuquerque Center
Wed 01:10:58 PM 31.6194 -105.5744 270° West 96 110 9,100 -97 Level Albuquerque Center
Wed 01:11:49 PM 31.6283 -105.5967 295° West 94 108 9,000 -100 Descending Albuquerque Center
Wed 01:11:58 PM 31.6289 -105.6019 277° West 93 107 9,000 -97 Level Albuquerque Center
Wed 01:12:51 PM 31.6375 -105.6258 293° West 95 109 8,900 -98 Descending Albuquerque Center
Wed 01:12:59 PM 31.6386 -105.6319 282° West 96 110 8,900  Level Albuquerque Center
Wed 01:13:53 PM 31.6497 -105.6531 302° West 95 109 8,900  Level Albuquerque Center
Wed 01:14:00 PM 31.6481 -105.6594 253° West 93 107 8,900 218 Level Albuquerque Center
Wed 01:14:48 PM 31.6558 -105.6775 297° West 85 98 9,100 218 Climbing Albuquerque Center
Wed 01:14:55 PM 31.6578 -105.6842 289° West 86 99 9,100 98 Level Albuquerque Center
Wed 01:15:49 PM 31.6608 -105.7039 280° West 78 90 9,200 97 Climbing Albuquerque Center
Wed 01:15:57 PM 31.6642 -105.7083 311° West 81 93 9,200 -86 Level Albuquerque Center
Wed 01:16:59 PM 31.6747 -105.7342 296° West 85 98 9,100 -50 Descending Albuquerque Center
Wed 01:17:56 PM 31.6825 -105.7633 287° West 94 108 9,100  Level Albuquerque Center
Wed 01:18:01 PM 31.6850 -105.7622 21° North 92 106 9,100 -109 Level Albuquerque Center
Wed 01:18:51 PM 31.6906 -105.7836 287° West 93 107 9,000 -194 Descending Albuquerque Center
Wed 01:19:03 PM 31.6953 -105.7894 314° West 92 106 8,900 -500 Descending Albuquerque Center
Wed 01:19:51 PM 31.7025 -105.8131 290° West 101 116 8,500 -484 Descending Albuquerque Center
Wed 01:20:05 PM 31.7067 -105.8208 302° West 102 117 8,400 -448 Descending Albuquerque Center
Wed 01:20:58 PM 31.7158 -105.8497 290° West 102 117 8,000 -581 Descending Albuquerque Center
Wed 01:21:07 PM 31.7200 -105.8567 305° West 101 116 7,800 -393 Descending Albuquerque Center
Wed 01:21:59 PM 31.7281 -105.8817 291° West 100 115 7,600 -290 Descending Albuquerque Center
Wed 01:22:09 PM 31.7311 -105.8864 307° West 100 115 7,500  Descending Albuquerque Center
Wed 01:22:59 PM 31.7369 -105.9069 288° West 90 104 7,600 97 Climbing Albuquerque Center
Wed 01:23:11 PM 31.7400 -105.9119 306° West 90 104 7,600  Level Albuquerque Center
Wed 01:23:54 PM 31.7458 -105.9319 289° West 85 98 7,600  Level Albuquerque Center
Wed 01:24:13 PM 31.7503 -105.9386 308° West 90 104 7,600 -100 Level Albuquerque Center
Wed 01:24:54 PM 31.7558 -105.9619 286° West 94 108 7,500 -97 Descending Albuquerque Center
Wed 01:25:15 PM 31.7592 -105.9675 305° West 93 107 7,500  Level Albuquerque Center
Wed 01:25:55 PM 31.7650 -105.9897 287° West 89 102 7,500 97 Level Albuquerque Center
Wed 01:26:17 PM 31.7669 -105.9939 299° West 89 102 7,600 197 Climbing Albuquerque Center
Wed 01:26:56 PM 31.7725 -106.0178 285° West 91 105 7,700  Climbing Albuquerque Center
Wed 01:27:19 PM 31.7781 -106.0286 301° West 93 107 7,600 -98 Descending Albuquerque Center
Wed 01:27:57 PM 31.7822 -106.0478 284° West 97 112 7,600  Level Albuquerque Center
Wed 01:28:22 PM 31.7875 -106.0589 299° West 98 113 7,600 -91 Level Albuquerque Center
Wed 01:29:03 PM 31.7919 -106.0778 285° West 99 114 7,500 -194 Descending Albuquerque Center
Wed 01:29:24 PM 31.7969 -106.0886 299° West 98 113 7,400 -197 Descending Albuquerque Center
Wed 01:30:04 PM 31.8014 -106.1056 287° West 97 112 7,300 -290 Descending Albuquerque Center
Wed 01:30:26 PM 31.8053 -106.1167 292° West 93 107 7,100 -455 Descending Albuquerque Center
Wed 01:31:10 PM 31.8081 -106.1414 278° West 92 106 6,800 -387 Descending Albuquerque Center
Wed 01:31:28 PM 31.8108 -106.1469 300° West 94 108 6,700 -295 Descending Albuquerque Center
Wed 01:32:11 PM 31.8117 -106.1731 272° West 96 110 6,500 -194 Descending Albuquerque Center
Wed 01:32:30 PM 31.8136 -106.1775 297° West 94 108 6,500  Level Albuquerque Center
Wed 01:33:06 PM 31.8122 -106.2003 266° West 85 98 6,500 -97 Level Albuquerque Center
Wed 01:33:32 PM 31.8133 -106.2111 277° West 87 100 6,400 -400 Descending Albuquerque Center
Wed 01:34:06 PM 31.8111 -106.2281 261° West 87 100 6,100 -484 Descending Albuquerque Center
Wed 01:34:34 PM 31.8156 -106.2411 292° West 92 106 5,900 -358 Descending Albuquerque Center
Wed 01:35:13 PM 31.8147 -106.2597 267° West 95 109 5,700 -290 Descending Albuquerque Center
Wed 01:35:36 PM 31.8169 -106.2686 286° West 88 101 5,600 -329 Descending Albuquerque Center
Wed 01:36:26 PM 31.8117 -106.2906 254° West 74 85 5,300 -290 Descending Albuquerque Center
Wed 01:36:38 PM 31.8114 -106.2944 265° West 83 96 5,300 -375 Level Albuquerque Center
Wed 01:37:14 PM 31.8086 -106.3086 257° West 71 82 5,000 -387 Descending Albuquerque Center
Wed 01:37:40 PM 31.8067 -106.3200 259° West 81 93 4,900 -393 Descending Albuquerque Center
Wed 01:38:15 PM 31.8028 -106.3353 253° West 77 89 4,600 -581 Descending Albuquerque Center
Wed 01:38:42 PM 31.7972 -106.3511 248° West 81 93 4,300 -300 Descending Albuquerque Center
Wed 01:39:15 PM 31.7950 -106.3622 257° West 82 94 4,300  Level Albuquerque Center
Wed 01:41:00 PM 31.8000 -106.3667 291° West  Level FlightAware Approximate
Wed 01:48:00 PM 31.8072 -106.3764 291° West  Level Estimated
Wed 01:49:00 PM 31.8072 -106.3764 291° West  Level Estimated
Wed 01:50:00 PM 31.8072 -106.3764 291° West  Level Estimated
Wed 01:51:00 PM 31.8072 -106.3764 291° West  Level Estimated
Wed 01:52:00 PM 31.8072 -106.3764 291° West  Level Estimated
Wed 01:53:00 PM 31.8072 -106.3764 291° West  Level Estimated
Wed 01:54:00 PM 31.8072 -106.3764 291° West  Level Estimated
Wed 01:55:00 PM 31.8072 -106.3764 291° West  Level Estimated
Wed 01:56:00 PM 31.8072 -106.3764 291° West  Level Estimated
Wed 01:57:00 PM 31.8072 -106.3764 291° West  Level Estimated
Wed 01:58:00 PM 31.8072 -106.3764 291° West  Level Estimated
Wed 01:59:00 PM 31.8072 -106.3764 291° West  Level Estimated
Wed 02:00:00 PM 31.8072 -106.3764 291° West  Level Estimated
Wed 02:01:00 PM 31.8072 -106.3764 291° West  Level Estimated
Wed 02:02:00 PM 31.8072 -106.3764 291° West  Level Estimated
Wed 02:03:00 PM 31.8072 -106.3764 291° West  Level Estimated

Login

Don't have an account? Register now (free) for customized features, flight alerts, and more!